createdAt,value
2022-09-23T00:01:38.116Z,8.98
2022-09-23T00:04:06.144Z,8.98
2022-09-23T00:06:34.910Z,8.82
2022-09-23T00:09:02.911Z,8.48
2022-09-23T00:11:30.775Z,9.20
2022-09-23T00:14:00.755Z,8.43
2022-09-23T00:16:33.418Z,9.35
2022-09-23T00:19:03.868Z,9.32
2022-09-23T00:21:31.756Z,8.75
2022-09-23T00:24:00.831Z,9.50
2022-09-23T00:26:28.947Z,8.82
2022-09-23T00:29:00.206Z,8.93
2022-09-23T00:31:28.340Z,8.90
2022-09-23T00:33:58.458Z,8.95
2022-09-23T00:36:27.501Z,8.77
2022-09-23T00:38:55.605Z,8.73
2022-09-23T00:41:24.606Z,8.93
2022-09-23T00:43:58.842Z,9.63
2022-09-23T00:46:38.898Z,9.32
2022-09-23T00:49:19.454Z,9.63
2022-09-23T00:51:54.950Z,9.43
2022-09-23T00:54:27.271Z,9.68
2022-09-23T00:56:59.770Z,10.23
2022-09-23T00:59:29.039Z,9.90
2022-09-23T01:01:59.823Z,8.85
2022-09-23T01:04:29.622Z,9.52
2022-09-23T01:06:57.351Z,9.73
2022-09-23T01:09:26.151Z,9.13
2022-09-23T01:12:04.145Z,8.70
2022-09-23T01:14:59.573Z,9.45
2022-09-23T01:17:47.928Z,9.00
2022-09-23T01:20:48.241Z,9.00
2022-09-23T01:23:40.409Z,8.43
2022-09-23T01:26:30.306Z,10.27
2022-09-23T01:29:36.407Z,8.57
2022-09-23T01:32:35.306Z,8.27
2022-09-23T01:35:31.152Z,8.20
2022-09-23T01:38:23.268Z,8.52
2022-09-23T01:41:13.648Z,8.52
2022-09-23T01:44:05.905Z,8.38
2022-09-23T01:46:48.186Z,9.13
2022-09-23T01:49:21.149Z,8.57
2022-09-23T01:51:57.361Z,9.13
2022-09-23T01:54:42.218Z,8.75
2022-09-23T01:57:18.473Z,9.18
2022-09-23T01:59:50.982Z,8.55
2022-09-23T02:02:37.497Z,8.88
2022-09-23T02:05:11.966Z,9.18
2022-09-23T02:07:52.068Z,8.75
2022-09-23T02:10:35.965Z,9.20
2022-09-23T02:13:09.824Z,8.68
2022-09-23T02:15:51.566Z,8.13
2022-09-23T02:18:34.195Z,8.32
2022-09-23T02:21:08.587Z,8.38
2022-09-23T02:23:50.593Z,9.00
2022-09-23T02:26:40.229Z,9.30
2022-09-23T02:29:47.351Z,8.98
2022-09-23T02:32:34.043Z,8.80
2022-09-23T02:35:15.855Z,8.60
2022-09-23T02:38:14.453Z,8.23
2022-09-23T02:41:07.874Z,8.70
2022-09-23T02:43:46.078Z,7.90
2022-09-23T02:46:14.870Z,8.63
2022-09-23T02:48:49.136Z,8.48
2022-09-23T02:51:17.024Z,8.70
2022-09-23T02:53:45.908Z,9.27
2022-09-23T02:56:21.123Z,9.43
2022-09-23T02:58:51.843Z,9.52
2022-09-23T03:01:48.766Z,9.48
2022-09-23T03:04:39.390Z,9.50
2022-09-23T03:07:23.792Z,8.95
2022-09-23T03:10:15.918Z,8.93
2022-09-23T03:13:18.807Z,9.05
2022-09-23T03:16:24.514Z,9.07
2022-09-23T03:19:17.550Z,9.63
2022-09-23T03:22:19.317Z,9.20
2022-09-23T03:24:53.880Z,9.40
2022-09-23T03:27:26.714Z,9.23
2022-09-23T03:29:57.456Z,10.40
2022-09-23T03:32:28.103Z,9.60
2022-09-23T03:34:57.932Z,9.60
2022-09-23T03:37:48.069Z,9.18
2022-09-23T03:40:17.490Z,8.98
2022-09-23T03:42:50.566Z,9.05
2022-09-23T03:45:27.110Z,8.68
2022-09-23T03:47:56.169Z,8.82
2022-09-23T03:50:24.395Z,10.80
2022-09-23T03:52:52.188Z,10.07
2022-09-23T03:55:21.182Z,9.95
2022-09-23T03:57:49.065Z,9.60
2022-09-23T04:00:20.191Z,9.52
2022-09-23T04:02:49.794Z,8.90
2022-09-23T04:05:19.118Z,9.13
2022-09-23T04:07:48.102Z,8.25
2022-09-23T04:10:15.991Z,8.70
2022-09-23T04:12:44.871Z,8.35
2022-09-23T04:15:12.883Z,8.65
2022-09-23T04:17:40.821Z,8.10
2022-09-23T04:20:10.675Z,10.02
2022-09-23T04:22:38.694Z,8.98
2022-09-23T04:25:10.406Z,9.60
2022-09-23T04:27:39.445Z,10.23
2022-09-23T04:30:10.678Z,9.57
2022-09-23T04:32:39.526Z,8.57
2022-09-23T04:35:09.592Z,9.20
2022-09-23T04:37:37.416Z,9.02
2022-09-23T04:40:05.764Z,8.65
2022-09-23T04:42:33.562Z,9.05
2022-09-23T04:45:01.535Z,8.55
2022-09-23T04:47:31.253Z,9.02
2022-09-23T04:50:00.060Z,8.85
2022-09-23T04:52:29.829Z,8.75
2022-09-23T04:55:01.973Z,8.65
2022-09-23T04:57:29.844Z,8.98
2022-09-23T05:00:27.219Z,9.13
2022-09-23T05:02:54.934Z,8.57
2022-09-23T05:05:24.137Z,7.95
2022-09-23T05:07:54.281Z,8.00
2022-09-23T05:10:31.203Z,8.38
2022-09-23T05:12:59.596Z,9.43
2022-09-23T05:15:28.338Z,9.45
2022-09-23T05:18:00.104Z,8.95
2022-09-23T05:20:34.686Z,8.65
2022-09-23T05:23:02.726Z,8.88
2022-09-23T05:25:31.760Z,8.95
2022-09-23T05:28:01.079Z,8.63
2022-09-23T05:30:29.263Z,8.98
2022-09-23T05:33:00.826Z,8.70
2022-09-23T05:35:29.304Z,8.85
2022-09-23T05:37:58.250Z,9.20
2022-09-23T05:40:27.032Z,9.05
2022-09-23T05:42:55.589Z,8.70
2022-09-23T05:45:26.752Z,8.65
2022-09-23T05:47:54.745Z,9.10
2022-09-23T05:50:25.355Z,8.48
2022-09-23T05:52:53.146Z,8.80
2022-09-23T05:55:21.092Z,9.18
2022-09-23T05:57:48.895Z,8.43
2022-09-23T06:00:18.279Z,8.65
2022-09-23T06:02:48.808Z,8.32
2022-09-23T06:05:18.112Z,8.48
2022-09-23T06:07:46.254Z,7.90
2022-09-23T06:10:14.033Z,8.35
2022-09-23T06:12:44.938Z,8.40
2022-09-23T06:15:12.724Z,8.88
2022-09-23T06:17:40.435Z,8.23
2022-09-23T06:20:08.669Z,8.32
2022-09-23T06:22:40.096Z,8.30
2022-09-23T06:25:08.497Z,8.18
2022-09-23T06:27:36.479Z,7.40
2022-09-23T06:30:06.605Z,8.27
2022-09-23T06:32:34.631Z,8.02
2022-09-23T06:35:02.367Z,7.65
2022-09-23T06:37:32.923Z,8.90
2022-09-23T06:40:00.754Z,8.73
2022-09-23T06:42:29.580Z,8.15
2022-09-23T06:44:57.300Z,8.20
2022-09-23T06:47:25.146Z,7.70
2022-09-23T06:49:52.911Z,8.73
2022-09-23T06:52:21.117Z,8.20
2022-09-23T06:54:48.946Z,8.48
2022-09-23T06:57:20.543Z,8.30
2022-09-23T06:59:48.910Z,8.02
2022-09-23T07:02:17.096Z,8.13
2022-09-23T07:04:44.911Z,7.57
2022-09-23T07:07:14.109Z,8.05
2022-09-23T07:09:41.939Z,7.47
2022-09-23T07:12:09.691Z,7.30
2022-09-23T07:14:37.482Z,7.88
2022-09-23T07:17:05.424Z,7.32
2022-09-23T07:19:35.591Z,7.57
2022-09-23T07:22:03.632Z,7.63
2022-09-23T07:24:31.573Z,7.90
2022-09-23T07:26:59.815Z,7.80
2022-09-23T07:29:27.989Z,7.28
2022-09-23T07:32:08.657Z,7.30
2022-09-23T07:34:39.072Z,7.35
2022-09-23T07:37:06.922Z,7.47
2022-09-23T07:39:36.652Z,7.63
2022-09-23T07:42:06.563Z,7.22
2022-09-23T07:44:34.653Z,7.38
2022-09-23T07:47:02.569Z,6.90
2022-09-23T07:49:30.410Z,7.10
2022-09-23T07:51:58.342Z,6.70
2022-09-23T07:54:30.703Z,7.10
2022-09-23T07:56:59.774Z,7.00
2022-09-23T07:59:29.074Z,7.00
2022-09-23T08:01:57.505Z,5.55
2022-09-23T08:04:29.658Z,6.88
2022-09-23T08:07:04.826Z,7.45
2022-09-23T08:09:41.268Z,6.57
2022-09-23T08:12:15.307Z,6.45
2022-09-23T08:14:44.582Z,6.18
2022-09-23T08:17:13.314Z,6.55
2022-09-23T08:19:41.395Z,6.13
2022-09-23T08:22:12.172Z,6.32
2022-09-23T08:24:41.025Z,6.20
2022-09-23T08:27:10.804Z,6.22
2022-09-23T08:29:38.670Z,6.10
2022-09-23T08:32:06.767Z,6.75
2022-09-23T08:34:40.312Z,6.35
2022-09-23T08:37:13.498Z,6.70
2022-09-23T08:40:32.081Z,6.13
2022-09-23T08:43:00.142Z,5.65
2022-09-23T08:45:34.452Z,6.00
2022-09-23T08:48:29.399Z,5.95
2022-09-23T08:51:05.609Z,5.60
2022-09-23T08:53:36.301Z,5.45
2022-09-23T08:56:10.866Z,5.78
2022-09-23T09:01:25.437Z,4.80
2022-09-23T09:03:56.401Z,5.90
2022-09-23T09:06:53.624Z,5.60
2022-09-23T09:09:52.175Z,5.40
2022-09-23T09:12:40.836Z,5.50
2022-09-23T09:15:26.586Z,5.53
2022-09-23T09:18:20.904Z,5.40
2022-09-23T09:20:58.236Z,5.78
2022-09-23T09:23:45.983Z,5.68
2022-09-23T09:26:33.813Z,5.15
2022-09-23T09:29:41.380Z,5.45
2022-09-23T09:32:46.214Z,5.68
2022-09-23T09:35:50.268Z,5.22
2022-09-23T09:38:21.990Z,5.25
2022-09-23T09:40:50.117Z,5.75
2022-09-23T09:43:24.329Z,5.75
2022-09-23T09:46:22.787Z,6.10
2022-09-23T09:49:00.030Z,6.30
2022-09-23T09:51:29.626Z,5.57
2022-09-23T09:54:27.295Z,5.53
2022-09-23T09:56:55.449Z,5.75
2022-09-23T09:59:29.819Z,5.63
2022-09-23T10:02:30.092Z,5.55
2022-09-23T10:05:01.258Z,5.32
2022-09-23T10:07:32.540Z,5.72
2022-09-23T10:10:32.460Z,5.57
2022-09-23T10:13:15.220Z,5.75
2022-09-23T10:15:45.208Z,5.88
2022-09-23T10:18:30.718Z,5.35
2022-09-23T10:21:07.167Z,6.22
2022-09-23T10:23:41.276Z,6.25
2022-09-23T10:26:12.122Z,5.65
2022-09-23T10:28:41.706Z,5.47
2022-09-23T10:31:31.605Z,5.10
2022-09-23T10:34:02.564Z,4.95
2022-09-23T10:36:33.257Z,5.32
2022-09-23T10:39:22.918Z,5.22
2022-09-23T10:42:22.401Z,4.40
2022-09-23T10:45:12.056Z,2.25
2022-09-23T10:47:59.391Z,2.28
2022-09-23T10:50:47.511Z,2.00
2022-09-23T10:53:26.050Z,2.22
2022-09-23T10:56:08.924Z,2.25
2022-09-23T10:59:02.811Z,2.30
2022-09-23T11:01:33.468Z,2.00
2022-09-23T11:04:26.842Z,1.90
2022-09-23T11:07:14.069Z,1.95
2022-09-23T11:09:59.807Z,2.00
2022-09-23T11:12:56.062Z,1.90
2022-09-23T11:15:35.802Z,2.45
2022-09-23T11:18:14.861Z,2.10
2022-09-23T11:20:42.686Z,2.05
2022-09-23T11:23:49.468Z,2.05
2022-09-23T11:26:36.582Z,1.80
2022-09-23T11:29:32.203Z,2.25
2022-09-23T11:32:03.213Z,2.42
2022-09-23T11:34:41.857Z,4.30
2022-09-23T11:37:38.633Z,4.63
2022-09-23T11:40:19.050Z,5.07
2022-09-23T11:43:14.205Z,4.53
2022-09-23T11:45:55.011Z,5.03
2022-09-23T11:48:51.084Z,4.65
2022-09-23T11:51:38.007Z,5.20
2022-09-23T11:54:20.521Z,4.95
2022-09-23T11:56:56.902Z,5.03
2022-09-23T12:02:28.184Z,5.35
2022-09-23T12:05:12.340Z,2.10
2022-09-23T12:08:04.417Z,2.05
2022-09-23T12:10:56.177Z,1.85
2022-09-23T12:13:39.495Z,1.88
2022-09-23T12:16:32.131Z,2.10
2022-09-23T12:19:22.205Z,2.28
2022-09-23T12:21:59.415Z,2.20
2022-09-23T12:25:04.765Z,2.10
2022-09-23T12:27:38.642Z,2.30
2022-09-23T12:30:18.561Z,2.10
2022-09-23T12:33:30.360Z,2.50
2022-09-23T12:36:26.481Z,2.28
2022-09-23T12:39:07.649Z,2.40
2022-09-23T12:41:42.485Z,2.50
2022-09-23T12:44:15.246Z,2.38
2022-09-23T12:46:45.121Z,2.40
2022-09-23T12:49:25.222Z,2.55
2022-09-23T12:52:12.847Z,2.67
2022-09-23T12:54:42.459Z,2.40
2022-09-23T12:57:14.554Z,2.40
2022-09-23T12:59:57.424Z,2.45
2022-09-23T13:02:35.175Z,2.42
2022-09-23T13:05:27.607Z,2.53
2022-09-23T13:08:15.813Z,2.67
2022-09-23T13:10:55.541Z,2.50
2022-09-23T13:13:41.553Z,2.30
2022-09-23T13:16:20.393Z,2.20
2022-09-23T13:18:54.786Z,2.40
2022-09-23T13:21:45.894Z,2.28
2022-09-23T13:24:13.696Z,2.30
2022-09-23T13:27:06.133Z,2.13
2022-09-23T13:29:59.202Z,2.53
2022-09-23T13:32:33.693Z,2.63
2022-09-23T13:37:52.857Z,2.20
2022-09-23T13:40:27.766Z,2.00
2022-09-23T13:43:05.505Z,2.20
2022-09-23T13:45:38.020Z,2.38
2022-09-23T13:48:13.772Z,2.15
2022-09-23T13:50:48.769Z,2.50
2022-09-23T13:53:22.875Z,2.38
2022-09-23T13:56:15.899Z,2.72
2022-09-23T13:58:44.051Z,2.30
2022-09-23T14:01:33.522Z,2.50
2022-09-23T14:04:02.635Z,3.00
2022-09-23T14:06:32.169Z,2.90
2022-09-23T14:09:06.073Z,2.75
2022-09-23T14:11:35.382Z,2.50
2022-09-23T14:14:09.496Z,3.25
2022-09-23T14:16:44.771Z,3.03
2022-09-23T14:19:20.801Z,3.50
2022-09-23T14:21:56.348Z,2.90
2022-09-23T14:24:33.871Z,3.30
2022-09-23T14:27:07.955Z,3.10
2022-09-23T14:29:39.397Z,3.50
2022-09-23T14:32:16.175Z,3.65
2022-09-23T14:34:50.055Z,4.20
2022-09-23T14:37:52.689Z,4.10
2022-09-23T14:40:33.908Z,4.50
2022-09-23T14:43:16.874Z,4.70
2022-09-23T14:45:47.666Z,4.57
2022-09-23T14:48:17.720Z,4.40
2022-09-23T14:50:51.252Z,4.85
2022-09-23T14:53:19.047Z,5.55
2022-09-23T14:56:05.744Z,5.05
2022-09-23T14:58:53.513Z,5.40
2022-09-23T15:01:47.177Z,4.97
2022-09-23T15:04:21.736Z,5.63
2022-09-23T15:09:54.925Z,5.43
2022-09-23T15:12:23.231Z,5.47
2022-09-23T15:14:56.683Z,5.03
2022-09-23T15:17:24.524Z,5.80
2022-09-23T15:20:06.690Z,5.53
2022-09-23T15:22:48.376Z,5.72
2022-09-23T15:25:28.200Z,5.82
2022-09-23T15:27:57.236Z,4.93
2022-09-23T15:30:25.443Z,5.80
2022-09-23T15:32:53.776Z,5.85
2022-09-23T15:35:27.492Z,5.63
2022-09-23T15:38:02.693Z,5.43
2022-09-23T15:40:33.145Z,5.45
2022-09-23T15:43:21.002Z,4.75
2022-09-23T15:45:53.234Z,5.20
2022-09-23T15:48:24.898Z,4.82
2022-09-23T15:50:54.272Z,5.22
2022-09-23T15:53:26.031Z,4.97
2022-09-23T15:55:54.201Z,4.75
2022-09-23T15:58:23.587Z,5.32
2022-09-23T16:00:56.233Z,4.97
2022-09-23T16:03:28.577Z,4.65
2022-09-23T16:06:02.957Z,4.30
2022-09-23T16:08:32.777Z,4.97
2022-09-23T16:11:00.721Z,4.55
2022-09-23T16:13:28.592Z,4.20
2022-09-23T16:15:56.478Z,4.40
2022-09-23T16:18:24.401Z,4.18
2022-09-23T16:20:52.153Z,4.15
2022-09-23T16:23:43.826Z,4.30
2022-09-23T16:26:15.625Z,4.50
2022-09-23T16:28:44.428Z,4.45
2022-09-23T16:31:14.586Z,4.22
2022-09-23T16:33:43.417Z,4.30
2022-09-23T16:36:35.757Z,4.53
2022-09-23T16:39:07.061Z,4.65
2022-09-23T16:41:36.426Z,4.28
2022-09-23T16:44:07.462Z,4.05
2022-09-23T16:46:42.299Z,3.92
2022-09-23T16:49:13.712Z,3.95
2022-09-23T16:52:04.433Z,4.70
2022-09-23T16:54:37.423Z,3.90
2022-09-23T16:57:14.295Z,4.72
2022-09-23T17:00:02.571Z,4.35
2022-09-23T17:02:50.247Z,4.35
2022-09-23T17:05:22.240Z,3.88
2022-09-23T17:08:15.623Z,4.57
2022-09-23T17:11:06.716Z,4.57
2022-09-23T17:13:36.215Z,4.47
2022-09-23T17:16:09.336Z,4.32
2022-09-23T17:18:39.219Z,4.35
2022-09-23T17:21:09.041Z,4.55
2022-09-23T17:23:40.376Z,4.20
2022-09-23T17:26:33.641Z,4.47
2022-09-23T17:29:05.198Z,4.68
2022-09-23T17:31:34.559Z,4.60
2022-09-23T17:34:12.905Z,4.22
2022-09-23T17:36:41.110Z,4.70
2022-09-23T17:39:09.544Z,4.50
2022-09-23T17:41:39.111Z,5.32
2022-09-23T17:44:11.366Z,5.45
2022-09-23T17:47:06.236Z,5.20
2022-09-23T17:49:37.389Z,5.35
2022-09-23T17:52:06.297Z,5.28
2022-09-23T17:54:38.641Z,5.75
2022-09-23T17:57:11.021Z,5.45
2022-09-23T17:59:40.343Z,6.25
2022-09-23T18:02:15.543Z,6.03
2022-09-23T18:04:47.419Z,6.47
2022-09-23T18:07:15.684Z,6.75
2022-09-23T18:09:44.886Z,6.18
2022-09-23T18:12:14.899Z,5.97
2022-09-23T18:14:49.941Z,6.03
2022-09-23T18:17:21.694Z,6.60
2022-09-23T18:19:50.687Z,6.70
2022-09-23T18:22:22.649Z,6.93
2022-09-23T18:24:53.481Z,7.10
2022-09-23T18:27:25.974Z,6.80
2022-09-23T18:29:54.465Z,8.38
2022-09-23T18:32:23.032Z,7.97
2022-09-23T18:35:20.690Z,8.73
2022-09-23T18:37:50.421Z,8.35
2022-09-23T18:40:20.044Z,9.20
2022-09-23T18:42:59.559Z,9.80
2022-09-23T18:45:29.822Z,9.90
2022-09-23T18:48:16.625Z,9.45
2022-09-23T18:50:49.157Z,9.65
2022-09-23T18:53:20.510Z,10.07
2022-09-23T18:55:56.919Z,10.50
2022-09-23T18:58:25.149Z,10.32
2022-09-23T19:00:53.212Z,9.82
2022-09-23T19:03:21.225Z,10.77
2022-09-23T19:05:49.509Z,9.80
2022-09-23T19:08:19.784Z,10.32
2022-09-23T19:10:56.051Z,10.80
2022-09-23T19:13:28.336Z,10.43
2022-09-23T19:16:01.344Z,10.98
2022-09-23T19:18:35.535Z,11.38
2022-09-23T19:21:06.909Z,12.55
2022-09-23T19:23:35.610Z,11.98
2022-09-23T19:26:06.376Z,13.07
2022-09-23T19:28:34.410Z,12.70
2022-09-23T19:31:16.840Z,13.13
2022-09-23T19:33:55.937Z,13.52
2022-09-23T19:36:31.953Z,13.40
2022-09-23T19:39:03.075Z,12.40
2022-09-23T19:41:40.307Z,12.75
2022-09-23T19:44:08.338Z,14.38
2022-09-23T19:46:39.150Z,14.10
2022-09-23T19:49:08.553Z,14.00
2022-09-23T19:51:40.239Z,13.82
2022-09-23T19:54:09.026Z,13.57
2022-09-23T19:56:38.526Z,14.35
2022-09-23T19:59:09.864Z,14.20
2022-09-23T20:01:37.988Z,14.70
2022-09-23T20:04:06.095Z,14.45
2022-09-23T20:06:59.210Z,15.05
2022-09-23T20:09:28.975Z,15.32
2022-09-23T20:11:57.573Z,15.98
2022-09-23T20:14:27.241Z,16.33
2022-09-23T20:17:20.819Z,16.42
2022-09-23T20:20:06.769Z,16.65
2022-09-23T20:22:35.353Z,16.88
2022-09-23T20:25:12.847Z,17.25
2022-09-23T20:27:41.176Z,18.02
2022-09-23T20:30:11.672Z,18.45
2022-09-23T20:32:44.801Z,17.80
2022-09-23T20:35:17.426Z,17.75
2022-09-23T20:37:52.813Z,17.25
2022-09-23T20:40:22.925Z,16.80
2022-09-23T20:42:50.971Z,17.75
2022-09-23T20:45:23.938Z,17.27
2022-09-23T20:47:51.761Z,17.95
2022-09-23T20:50:19.624Z,17.10
2022-09-23T20:52:47.480Z,17.55
2022-09-23T20:55:18.738Z,16.88
2022-09-23T20:57:48.647Z,17.10
2022-09-23T21:00:18.349Z,17.23
2022-09-23T21:02:46.140Z,18.10
2022-09-23T21:05:15.830Z,17.35
2022-09-23T21:07:49.098Z,16.98
2022-09-23T21:10:18.279Z,15.77
2022-09-23T21:12:50.371Z,15.88
2022-09-23T21:15:20.278Z,14.70
2022-09-23T21:17:48.148Z,15.73
2022-09-23T21:20:18.103Z,14.30
2022-09-23T21:22:49.449Z,14.85
2022-09-23T21:25:28.015Z,14.05
2022-09-23T21:27:57.572Z,14.48
2022-09-23T21:30:25.549Z,12.60
2022-09-23T21:32:53.676Z,14.32
2022-09-23T21:35:22.072Z,13.23
2022-09-23T21:37:50.208Z,13.60
2022-09-23T21:40:36.990Z,13.93
2022-09-23T21:43:08.414Z,14.75
2022-09-23T21:45:36.776Z,14.30
2022-09-23T21:48:05.465Z,13.90
2022-09-23T21:50:37.268Z,14.07
2022-09-23T21:53:07.130Z,14.13
2022-09-23T21:55:35.120Z,13.63
2022-09-23T21:58:02.938Z,13.93
2022-09-23T22:00:30.973Z,14.18
2022-09-23T22:02:59.927Z,14.00
2022-09-23T22:05:27.751Z,13.55
2022-09-23T22:08:02.418Z,14.43
2022-09-23T22:10:30.691Z,14.02
2022-09-23T22:12:59.078Z,14.82
2022-09-23T22:15:35.863Z,13.68
2022-09-23T22:18:05.611Z,13.75
2022-09-23T22:20:38.530Z,14.10
2022-09-23T22:23:06.699Z,14.27
2022-09-23T22:25:34.994Z,13.70
2022-09-23T22:28:43.146Z,13.55
2022-09-23T22:31:29.896Z,14.15
2022-09-23T22:33:59.575Z,13.65
2022-09-23T22:36:28.860Z,13.30
2022-09-23T22:38:59.141Z,13.80
2022-09-23T22:41:27.853Z,13.55
2022-09-23T22:43:57.082Z,15.02
2022-09-23T22:46:25.824Z,13.57
2022-09-23T22:48:54.792Z,13.85
2022-09-23T22:51:23.287Z,13.27
2022-09-23T22:53:52.967Z,14.77
2022-09-23T22:56:21.237Z,13.70
2022-09-23T22:58:49.604Z,14.25
2022-09-23T23:01:17.920Z,14.75
2022-09-23T23:03:45.998Z,14.13
2022-09-23T23:06:14.015Z,14.32
2022-09-23T23:08:42.337Z,15.45
2022-09-23T23:11:10.522Z,14.90
2022-09-23T23:13:42.021Z,14.98
2022-09-23T23:16:12.721Z,15.05
2022-09-23T23:18:43.498Z,15.50
2022-09-23T23:21:14.865Z,16.23
2022-09-23T23:23:49.055Z,16.77
2022-09-23T23:26:29.029Z,16.55
2022-09-23T23:29:22.906Z,15.77
2022-09-23T23:31:51.277Z,17.25
2022-09-23T23:34:23.170Z,16.52
2022-09-23T23:36:54.964Z,17.58
2022-09-23T23:39:25.006Z,19.02
2022-09-23T23:41:55.185Z,18.45
2022-09-23T23:44:25.303Z,18.35
2022-09-23T23:46:54.149Z,18.27
2022-09-23T23:49:22.154Z,19.27
2022-09-23T23:51:55.694Z,18.13
2022-09-23T23:54:23.582Z,18.75
2022-09-23T23:56:51.942Z,19.20
2022-09-23T23:59:20.047Z,19.95
